Time;durP1;ratioP1;P1;durP2;ratioP2;P2;SDS_P1;SDS_P2;PMS_P1;PMS_P2;Temp;Humidity;BMP_temperature;BMP_pressure;BME280_temperature;BME280_humidity;BME280_pressure;Samples;Min_cycle;Max_cycle;Signal;HPM_P1;HPM_P2
2022/03/29 00:00:51;;;;;;;;;;;;;;;;;;4975350;28;20042;-64
2022/03/29 00:03:17;;;;;;;;;;;;;;;;;;4977958;28;19941;-64
2022/03/29 00:05:43;;;;;;;;;;;;;;;;;;4980609;28;19975;-65
2022/03/29 00:08:09;;;;;;;;;;;;;;;;;;4975660;28;19966;-65
2022/03/29 00:10:35;;;;;;;;;;;;;;;;;;4979843;28;19926;-66
2022/03/29 00:13:02;;;;;;;;;;;;;;;;;;4984050;28;19959;-66
2022/03/29 00:15:29;;;;;;;;;;;;;;;;;;4979349;28;19934;-64
2022/03/29 00:17:55;;;;;;;;;;;;;;;;;;4978327;28;19940;-64
2022/03/29 00:20:21;;;;;;;;;;;;;;;;;;4985341;28;20013;-64
2022/03/29 00:22:47;;;;;;;;;;;;;;;;;;4986371;28;20181;-61
2022/03/29 00:25:14;;;;;;;;;;;;;;;;;;4974568;28;20452;-61
2022/03/29 00:27:40;;;;;;;;;;;;;;;;;;4978987;28;20052;-61
2022/03/29 00:30:06;;;;;;;;;;;;;;;;;;4978254;28;19926;-61
2022/03/29 00:32:33;;;;;;;;;;;;;;;;;;4982752;28;19947;-62
2022/03/29 00:34:59;;;;;;;;;;;;;;;;;;4982172;28;19959;-61
2022/03/29 00:37:25;;;;;;;;;;;;;;;;;;4983775;28;19963;-62
2022/03/29 00:39:51;;;;;;;;;;;;;;;;;;4976344;28;19930;-60
2022/03/29 00:42:17;;;;;;;;;;;;;;;;;;4984718;28;19945;-62
2022/03/29 00:44:43;;;;;;;;;;;;;;;;;;4979474;28;19926;-62
2022/03/29 00:47:09;;;;;;;;;;;;;;;;;;4978150;28;19959;-61
2022/03/29 00:49:36;;;;;;;;;;;;;;;;;;4978623;28;19945;-62
2022/03/29 00:52:02;;;;;;;;;;;;;;;;;;4977114;28;20020;-61
2022/03/29 00:54:28;;;;;;;;;;;;;;;;;;4976023;28;19930;-62
2022/03/29 00:56:54;;;;;;;;;;;;;;;;;;4979598;28;20009;-62
2022/03/29 00:59:20;;;;;;;;;;;;;;;;;;4972699;28;19950;-61
2022/03/29 01:01:46;;;;;;;;;;;;;;;;;;4975994;28;19940;-62
2022/03/29 01:04:13;;;;;;;;;;;;;;;;;;4984747;28;19926;-63
2022/03/29 01:06:39;;;;;;;;;;;;;;;;;;4980284;28;19971;-62
2022/03/29 01:09:05;;;;;;;;;;;;;;;;;;4983296;28;19933;-62
2022/03/29 01:11:31;;;;;;;;;;;;;;;;;;4983306;28;19930;-63
2022/03/29 01:13:58;;;;;;;;;;;;;;;;;;4974684;28;20031;-61
2022/03/29 01:19:08;;;;;;;;;;;;;;;;;;4980848;28;19955;-61
2022/03/29 01:21:34;;;;;;;;;;;;;;;;;;4974946;28;19926;-63
2022/03/29 01:24:00;;;;;;;;;;;;;;;;;;4982053;28;19956;-62
2022/03/29 01:26:26;;;;;;;;;;;;;;;;;;4975081;28;19925;-66
2022/03/29 01:28:52;;;;;;;;;;;;;;;;;;4979910;28;19933;-68
2022/03/29 01:31:18;;;;;;;;;;;;;;;;;;4981196;28;20279;-68
2022/03/29 01:33:44;;;;;;;;;;;;;;;;;;4983094;28;19958;-67
2022/03/29 01:36:11;;;;;;;;;;;;;;;;;;4977703;28;19948;-67
2022/03/29 01:38:37;;;;;;;;;;;;;;;;;;4978589;28;20331;-62
2022/03/29 01:41:05;;;;;;;;;;;;;;;;;;4977470;28;20314;-62
2022/03/29 01:43:31;;;;;;;;;;;;;;;;;;4982555;28;20389;-62
2022/03/29 01:45:57;;;;;;;;;;;;;;;;;;4974932;28;19968;-61
2022/03/29 01:48:24;;;;;;;;;;;;;;;;;;4978017;28;19930;-61
2022/03/29 01:50:51;;;;;;;;;;;;;;;;;;4972180;28;19927;-61
2022/03/29 01:53:17;;;;;;;;;;;;;;;;;;4982487;28;19932;-61
2022/03/29 01:55:45;;;;;;;;;;;;;;;;;;4974590;28;19930;-61
2022/03/29 01:58:11;;;;;;;;;;;;;;;;;;4978746;28;20007;-61
2022/03/29 02:00:39;;;;;;;;;;;;;;;;;;4976311;28;19933;-61
2022/03/29 02:03:05;;;;;;;;;;;;;;;;;;4982838;28;20129;-61
2022/03/29 02:05:32;;;;;;;;;;;;;;;;;;4978696;28;19933;-63
2022/03/29 02:07:58;;;;;;;;;;;;;;;;;;4976862;28;19926;-61
2022/03/29 02:10:24;;;;;;;;;;;;;;;;;;4983587;28;19984;-62
2022/03/29 02:12:50;;;;;;;;;;;;;;;;;;4984569;28;20009;-62
2022/03/29 02:15:16;;;;;;;;;;;;;;;;;;4987219;28;19964;-64
2022/03/29 02:17:43;;;;;;;;;;;;;;;;;;4978441;28;19961;-65
2022/03/29 02:20:09;;;;;;;;;;;;;;;;;;4978919;28;19933;-62
2022/03/29 02:22:35;;;;;;;;;;;;;;;;;;4985652;28;19934;-62
2022/03/29 02:25:01;;;;;;;;;;;;;;;;;;4980960;28;19952;-61
2022/03/29 02:27:27;;;;;;;;;;;;;;;;;;4987130;28;19926;-62
2022/03/29 02:29:53;;;;;;;;;;;;;;;;;;4980550;28;19944;-64
2022/03/29 02:32:19;;;;;;;;;;;;;;;;;;4978330;28;19925;-63
2022/03/29 02:34:46;;;;;;;;;;;;;;;;;;4983317;28;19926;-63
2022/03/29 02:37:13;;;;;;;;;;;;;;;;;;4978424;28;19929;-63
2022/03/29 02:39:39;;;;;;;;;;;;;;;;;;4978250;28;19937;-63
2022/03/29 02:42:06;;;;;;;;;;;;;;;;;;4983148;28;19965;-63
2022/03/29 02:44:32;;;;;;;;;;;;;;;;;;4976418;28;20387;-63
2022/03/29 02:46:58;;;;;;;;;;;;;;;;;;4980358;28;20370;-63
2022/03/29 02:49:24;;;;;;;;;;;;;;;;;;4977603;28;19926;-63
2022/03/29 02:51:51;;;;;;;;;;;;;;;;;;4983913;28;19932;-62
2022/03/29 02:54:17;;;;;;;;;;;;;;;;;;4984470;28;19926;-61
2022/03/29 02:56:43;;;;;;;;;;;;;;;;;;4981790;28;19940;-61
2022/03/29 02:59:10;;;;;;;;;;;;;;;;;;4984174;28;19956;-61
2022/03/29 03:01:36;;;;;;;;;;;;;;;;;;4982084;28;19937;-66
2022/03/29 03:04:02;;;;;;;;;;;;;;;;;;4984251;28;19972;-67
2022/03/29 03:06:28;;;;;;;;;;;;;;;;;;4979841;28;19954;-65
2022/03/29 03:08:54;;;;;;;;;;;;;;;;;;4980449;28;19937;-66
2022/03/29 03:11:21;;;;;;;;;;;;;;;;;;4977017;28;20016;-66
2022/03/29 03:13:47;;;;;;;;;;;;;;;;;;4977874;28;19926;-66
2022/03/29 03:16:14;;;;;;;;;;;;;;;;;;4979333;28;19938;-66
2022/03/29 03:18:40;;;;;;;;;;;;;;;;;;4985161;28;20360;-65
2022/03/29 03:21:06;;;;;;;;;;;;;;;;;;4979276;28;19933;-65
2022/03/29 03:23:33;;;;;;;;;;;;;;;;;;4988344;28;19975;-65
2022/03/29 03:25:59;;;;;;;;;;;;;;;;;;4978528;28;19963;-65
2022/03/29 03:28:25;;;;;;;;;;;;;;;;;;4978298;28;20290;-65
2022/03/29 03:30:53;;;;;;;;;;;;;;;;;;4982126;28;20399;-65
2022/03/29 03:33:19;;;;;;;;;;;;;;;;;;4984226;28;20033;-63
2022/03/29 03:35:45;;;;;;;;;;;;;;;;;;4983622;28;19929;-62
2022/03/29 03:38:12;;;;;;;;;;;;;;;;;;4980531;28;19953;-62
2022/03/29 03:40:38;;;;;;;;;;;;;;;;;;4981891;28;19945;-59
2022/03/29 03:43:04;;;;;;;;;;;;;;;;;;4990179;23;19958;-60
2022/03/29 03:45:30;;;;;;;;;;;;;;;;;;4988107;28;19965;-61
2022/03/29 03:47:56;;;;;;;;;;;;;;;;;;4984005;28;19953;-61
2022/03/29 03:50:22;;;;;;;;;;;;;;;;;;4987527;28;19968;-61
2022/03/29 03:52:49;;;;;;;;;;;;;;;;;;4984393;28;19948;-62
2022/03/29 03:55:15;;;;;;;;;;;;;;;;;;4987535;28;19970;-58
2022/03/29 03:57:41;;;;;;;;;;;;;;;;;;4982949;28;19952;-61
2022/03/29 04:00:07;;;;;;;;;;;;;;;;;;4987165;28;19963;-60
2022/03/29 04:02:34;;;;;;;;;;;;;;;;;;4982196;28;19968;-60
2022/03/29 04:05:00;;;;;;;;;;;;;;;;;;4987275;28;20064;-60
2022/03/29 04:07:26;;;;;;;;;;;;;;;;;;4986473;28;19977;-61
2022/03/29 04:09:52;;;;;;;;;;;;;;;;;;4988270;28;19957;-60
2022/03/29 04:12:19;;;;;;;;;;;;;;;;;;4987034;28;19974;-60
2022/03/29 04:14:45;;;;;;;;;;;;;;;;;;4984560;28;20061;-63
2022/03/29 04:17:11;;;;;;;;;;;;;;;;;;4986711;28;19989;-66
2022/03/29 04:19:37;;;;;;;;;;;;;;;;;;4986664;28;19959;-66
2022/03/29 04:22:03;;;;;;;;;;;;;;;;;;4978913;28;20495;-66
2022/03/29 04:24:29;;;;;;;;;;;;;;;;;;4982017;28;20341;-65
2022/03/29 04:26:56;;;;;;;;;;;;;;;;;;4984154;28;19968;-65
2022/03/29 04:29:22;;;;;;;;;;;;;;;;;;4989395;28;20399;-67
2022/03/29 04:31:49;;;;;;;;;;;;;;;;;;4984684;28;19952;-67
2022/03/29 04:34:15;;;;;;;;;;;;;;;;;;4989602;28;20009;-67
2022/03/29 04:36:41;;;;;;;;;;;;;;;;;;4986802;28;19954;-67
2022/03/29 04:39:08;;;;;;;;;;;;;;;;;;4987355;28;19978;-68
2022/03/29 04:41:34;;;;;;;;;;;;;;;;;;4980018;28;19955;-68
2022/03/29 04:44:00;;;;;;;;;;;;;;;;;;4991357;28;19982;-66
2022/03/29 04:46:27;;;;;;;;;;;;;;;;;;4977446;28;19978;-67
2022/03/29 04:48:53;;;;;;;;;;;;;;;;;;4984085;28;20031;-66
2022/03/29 04:51:19;;;;;;;;;;;;;;;;;;4990151;28;19967;-65
2022/03/29 04:53:45;;;;;;;;;;;;;;;;;;4985728;28;20021;-65
2022/03/29 04:56:12;;;;;;;;;;;;;;;;;;4985045;28;20444;-65
2022/03/29 04:58:38;;;;;;;;;;;;;;;;;;4986056;28;20340;-64
2022/03/29 05:01:05;;;;;;;;;;;;;;;;;;4985657;28;20261;-64
2022/03/29 05:03:31;;;;;;;;;;;;;;;;;;4986133;28;19963;-66
2022/03/29 05:05:58;;;;;;;;;;;;;;;;;;4986736;28;19969;-65
2022/03/29 05:08:24;;;;;;;;;;;;;;;;;;4987034;28;19968;-64
2022/03/29 05:10:50;;;;;;;;;;;;;;;;;;4987358;28;19960;-63
2022/03/29 05:13:16;;;;;;;;;;;;;;;;;;4988412;28;20446;-64
2022/03/29 05:15:42;;;;;;;;;;;;;;;;;;4983855;28;20443;-63
2022/03/29 05:18:08;;;;;;;;;;;;;;;;;;4984499;28;19966;-64
2022/03/29 05:20:34;;;;;;;;;;;;;;;;;;4983087;28;20307;-65
2022/03/29 05:23:02;;;;;;;;;;;;;;;;;;4982592;28;19971;-64
2022/03/29 05:25:28;;;;;;;;;;;;;;;;;;4987352;28;19983;-64
2022/03/29 05:27:55;;;;;;;;;;;;;;;;;;4983147;28;19964;-64
2022/03/29 05:30:21;;;;;;;;;;;;;;;;;;4986804;28;20061;-62
2022/03/29 05:32:47;;;;;;;;;;;;;;;;;;4983558;28;19958;-64
2022/03/29 05:35:13;;;;;;;;;;;;;;;;;;4986276;28;19979;-64
2022/03/29 05:37:40;;;;;;;;;;;;;;;;;;4986611;28;19971;-60
2022/03/29 05:40:06;;;;;;;;;;;;;;;;;;4989406;28;19967;-61
2022/03/29 05:42:33;;;;;;;;;;;;;;;;;;4985995;28;19976;-62
2022/03/29 05:44:59;;;;;;;;;;;;;;;;;;4989301;28;20000;-62
2022/03/29 05:50:08;;;;;;;;;;;;;;;;;;4991391;28;19959;-60
2022/03/29 05:52:35;;;;;;;;;;;;;;;;;;4988220;28;19985;-61
2022/03/29 05:55:01;;;;;;;;;;;;;;;;;;4994090;28;20038;-60
2022/03/29 05:57:27;;;;;;;;;;;;;;;;;;4990927;28;19959;-59
2022/03/29 05:59:53;;;;;;;;;;;;;;;;;;4991014;28;20685;-61
2022/03/29 06:02:19;;;;;;;;;;;;;;;;;;4990954;28;19963;-62
2022/03/29 06:04:46;;;;;;;;;;;;;;;;;;4991322;28;19994;-63
2022/03/29 06:07:12;;;;;;;;;;;;;;;;;;4987602;28;19962;-62
2022/03/29 06:09:38;;;;;;;;;;;;;;;;;;4990205;28;19966;-62
2022/03/29 06:12:05;;;;;;;;;;;;;;;;;;4986318;28;20322;-62
2022/03/29 06:14:31;;;;;;;;;;;;;;;;;;4991737;28;19988;-62
2022/03/29 06:16:59;;;;;;;;;;;;;;;;;;4989490;28;20464;-62
2022/03/29 06:19:25;;;;;;;;;;;;;;;;;;4988796;28;20009;-62
2022/03/29 06:21:52;;;;;;;;;;;;;;;;;;4982423;28;19950;-62
2022/03/29 06:24:18;;;;;;;;;;;;;;;;;;4990463;28;20009;-65
2022/03/29 06:26:44;;;;;;;;;;;;;;;;;;4989965;28;20423;-65
2022/03/29 06:29:10;;;;;;;;;;;;;;;;;;4992960;28;19949;-65
2022/03/29 06:31:36;;;;;;;;;;;;;;;;;;4987008;28;20035;-64
2022/03/29 06:34:03;;;;;;;;;;;;;;;;;;4991805;28;19992;-63
2022/03/29 06:36:29;;;;;;;;;;;;;;;;;;4992430;28;19961;-64
2022/03/29 06:38:55;;;;;;;;;;;;;;;;;;4982932;28;19991;-68
2022/03/29 06:41:21;;;;;;;;;;;;;;;;;;4989204;28;20411;-64
2022/03/29 06:43:47;;;;;;;;;;;;;;;;;;4989929;28;19955;-65
2022/03/29 06:46:13;;;;;;;;;;;;;;;;;;4986672;28;19955;-65
2022/03/29 06:48:41;;;;;;;;;;;;;;;;;;4986057;28;19972;-65
2022/03/29 06:51:09;;;;;;;;;;;;;;;;;;4988217;28;20410;-65
2022/03/29 06:53:35;;;;;;;;;;;;;;;;;;4983999;28;19959;-64
2022/03/29 06:56:01;;;;;;;;;;;;;;;;;;4989656;28;19978;-65
2022/03/29 06:58:28;;;;;;;;;;;;;;;;;;4984424;28;19937;-65
2022/03/29 07:00:56;;;;;;;;;;;;;;;;;;4987162;28;19963;-64
2022/03/29 07:03:22;;;;;;;;;;;;;;;;;;4990320;28;19954;-64
2022/03/29 07:05:48;;;;;;;;;;;;;;;;;;4986482;28;20539;-62
2022/03/29 07:08:16;;;;;;;;;;;;;;;;;;4983977;28;19946;-64
2022/03/29 07:13:41;;;;;;;;;;;;;;;;;;4912202;29;20484;-63
2022/03/29 07:16:08;;;;;;;;;;;;;;;;;;4911114;29;19960;-65
2022/03/29 07:18:34;;;;;;;;;;;;;;;;;;4941006;28;19948;-64
2022/03/29 07:21:01;;;;;;;;;;;;;;;;;;4984832;28;19941;-63
2022/03/29 07:23:27;;;;;;;;;;;;;;;;;;4986945;28;19938;-63
2022/03/29 07:25:53;;;;;;;;;;;;;;;;;;4989191;28;19957;-65
2022/03/29 07:28:20;;;;;;;;;;;;;;;;;;4986161;28;19938;-66
2022/03/29 07:30:46;;;;;;;;;;;;;;;;;;4986864;28;20048;-64
2022/03/29 07:33:13;;;;;;;;;;;;;;;;;;4987138;28;19948;-64
2022/03/29 07:35:39;;;;;;;;;;;;;;;;;;4991429;28;19961;-65
2022/03/29 07:38:08;;;;;;;;;;;;;;;;;;4985513;28;19948;-64
2022/03/29 07:40:34;;;;;;;;;;;;;;;;;;4980061;28;20341;-64
2022/03/29 07:43:00;;;;;;;;;;;;;;;;;;4986477;28;19942;-64
2022/03/29 07:45:26;;;;;;;;;;;;;;;;;;4987510;28;19960;-64
2022/03/29 07:47:56;;;;;;;;;;;;;;;;;;4985555;28;20295;-62
2022/03/29 07:50:22;;;;;;;;;;;;;;;;;;4987734;28;19932;-64
2022/03/29 07:52:49;;;;;;;;;;;;;;;;;;4988529;28;19958;-66
2022/03/29 07:55:15;;;;;;;;;;;;;;;;;;4987812;28;19969;-65
2022/03/29 07:57:41;;;;;;;;;;;;;;;;;;4985397;28;19926;-66
2022/03/29 08:02:48;;;;;;;;;;;;;;;;;;4984667;28;19938;-68
2022/03/29 08:05:15;;;;;;;;;;;;;;;;;;4986191;28;19929;-68
2022/03/29 08:07:41;;;;;;;;;;;;;;;;;;4987116;28;19930;-68
2022/03/29 08:10:07;;;;;;;;;;;;;;;;;;4988207;28;20591;-69
2022/03/29 08:12:34;;;;;;;;;;;;;;;;;;4986112;28;19930;-68
2022/03/29 08:15:00;;;;;;;;;;;;;;;;;;4983545;28;19926;-67
2022/03/29 08:17:26;;;;;;;;;;;;;;;;;;4986275;28;19965;-67
2022/03/29 08:19:52;;;;;;;;;;;;;;;;;;4983974;28;20025;-67
2022/03/29 08:22:18;;;;;;;;;;;;;;;;;;4983065;28;19930;-67
2022/03/29 08:24:44;;;;;;;;;;;;;;;;;;4987506;28;19937;-68
2022/03/29 08:27:11;;;;;;;;;;;;;;;;;;4986043;28;20430;-68
2022/03/29 08:29:37;;;;;;;;;;;;;;;;;;4983234;28;20314;-67
2022/03/29 08:32:04;;;;;;;;;;;;;;;;;;4981180;28;20379;-66
2022/03/29 08:34:30;;;;;;;;;;;;;;;;;;4986355;28;19961;-66
2022/03/29 08:36:56;;;;;;;;;;;;;;;;;;4987436;28;19982;-64
2022/03/29 08:39:22;;;;;;;;;;;;;;;;;;4989491;28;19948;-62
2022/03/29 08:41:48;;;;;;;;;;;;;;;;;;4987681;28;19926;-62
2022/03/29 08:44:14;;;;;;;;;;;;;;;;;;4985085;28;19926;-62
2022/03/29 08:46:42;;;;;;;;;;;;;;;;;;4983164;28;19933;-65
2022/03/29 08:49:08;;;;;;;;;;;;;;;;;;4985872;28;20008;-63
2022/03/29 08:51:35;;;;;;;;;;;;;;;;;;4984521;28;19956;-63
2022/03/29 08:54:01;;;;;;;;;;;;;;;;;;4986204;28;19945;-71
2022/03/29 08:56:27;;;;;;;;;;;;;;;;;;4985310;28;20312;-69
2022/03/29 08:58:53;;;;;;;;;;;;;;;;;;4973998;28;19958;-69
2022/03/29 09:01:20;;;;;;;;;;;;;;;;;;4980732;28;19941;-70
2022/03/29 09:03:47;;;;;;;;;;;;;;;;;;4973411;28;19964;-70
2022/03/29 09:06:13;;;;;;;;;;;;;;;;;;4981134;28;20027;-70
2022/03/29 09:08:40;;;;;;;;;;;;;;;;;;4979766;28;19950;-71
2022/03/29 09:11:08;;;;;;;;;;;;;;;;;;4980341;28;19997;-70
2022/03/29 09:13:34;;;;;;;;;;;;;;;;;;4976046;28;19951;-71
2022/03/29 09:16:01;;;;;;;;;;;;;;;;;;4972889;28;20532;-70
2022/03/29 09:18:27;;;;;;;;;;;;;;;;;;4972781;28;20728;-71
2022/03/29 09:20:53;;;;;;;;;;;;;;;;;;4971245;28;20048;-70
2022/03/29 09:23:20;;;;;;;;;;;;;;;;;;4971446;28;20242;-70
2022/03/29 09:25:47;;;;;;;;;;;;;;;;;;4975772;28;19926;-70
2022/03/29 09:28:14;;;;;;;;;;;;;;;;;;4980559;28;20188;-70
2022/03/29 09:30:40;;;;;;;;;;;;;;;;;;4970908;28;20483;-69
2022/03/29 09:33:07;;;;;;;;;;;;;;;;;;4971131;28;19933;-70
2022/03/29 09:35:33;;;;;;;;;;;;;;;;;;4970752;28;20021;-70
2022/03/29 09:38:01;;;;;;;;;;;;;;;;;;4974794;28;19951;-70
2022/03/29 09:40:27;;;;;;;;;;;;;;;;;;4990273;28;19987;-72
2022/03/29 09:42:56;;;;;;;;;;;;;;;;;;4974425;28;19953;-73
2022/03/29 09:45:22;;;;;;;;;;;;;;;;;;4971064;28;19926;-73
2022/03/29 09:47:49;;;;;;;;;;;;;;;;;;4976013;28;19946;-72
2022/03/29 09:50:15;;;;;;;;;;;;;;;;;;4983272;28;20280;-73
2022/03/29 09:52:41;;;;;;;;;;;;;;;;;;4976156;28;20104;-74
2022/03/29 09:55:09;;;;;;;;;;;;;;;;;;4989508;28;19948;-71
2022/03/29 09:57:35;;;;;;;;;;;;;;;;;;4986586;28;19989;-73
2022/03/29 10:00:02;;;;;;;;;;;;;;;;;;4973748;28;19926;-73
2022/03/29 10:02:28;;;;;;;;;;;;;;;;;;4974323;28;20383;-73
2022/03/29 10:04:56;;;;;;;;;;;;;;;;;;4980747;28;19926;-73
2022/03/29 10:07:22;;;;;;;;;;;;;;;;;;4976158;28;20166;-72
2022/03/29 10:09:49;;;;;;;;;;;;;;;;;;4979960;28;19926;-73
2022/03/29 10:12:16;;;;;;;;;;;;;;;;;;4975125;28;19933;-73
2022/03/29 10:14:43;;;;;;;;;;;;;;;;;;4988010;28;19932;-72
2022/03/29 10:17:09;;;;;;;;;;;;;;;;;;4988506;28;19926;-74
2022/03/29 10:19:35;;;;;;;;;;;;;;;;;;4991280;28;19925;-74
2022/03/29 10:22:01;;;;;;;;;;;;;;;;;;4971910;28;19933;-74
2022/03/29 10:24:28;;;;;;;;;;;;;;;;;;4983752;28;20118;-73
2022/03/29 10:26:55;;;;;;;;;;;;;;;;;;4980921;28;19926;-72
2022/03/29 10:29:22;;;;;;;;;;;;;;;;;;4982534;28;19963;-73
2022/03/29 10:31:48;;;;;;;;;;;;;;;;;;4986764;28;20033;-74
2022/03/29 10:34:16;;;;;;;;;;;;;;;;;;4975281;28;19933;-72
2022/03/29 10:36:42;;;;;;;;;;;;;;;;;;4978290;28;19925;-72
2022/03/29 10:39:08;;;;;;;;;;;;;;;;;;4991165;28;19974;-72
2022/03/29 10:41:34;;;;;;;;;;;;;;;;;;4974229;28;19964;-72
2022/03/29 10:44:01;;;;;;;;;;;;;;;;;;4974167;28;19977;-71
2022/03/29 10:46:27;;;;;;;;;;;;;;;;;;4988056;28;20403;-73
2022/03/29 10:48:53;;;;;;;;;;;;;;;;;;4984597;28;20379;-72
2022/03/29 10:51:19;;;;;;;;;;;;;;;;;;4978545;28;20384;-72
2022/03/29 10:53:47;;;;;;;;;;;;;;;;;;4988072;28;20184;-72
2022/03/29 10:56:15;;;;;;;;;;;;;;;;;;4992798;28;19944;-71
2022/03/29 10:58:41;;;;;;;;;;;;;;;;;;4978942;28;19973;-72
2022/03/29 11:01:07;;;;;;;;;;;;;;;;;;4986377;28;19930;-72
2022/03/29 11:03:36;;;;;;;;;;;;;;;;;;4985075;28;20002;-71
2022/03/29 11:06:02;;;;;;;;;;;;;;;;;;4983338;28;19933;-73
2022/03/29 11:08:28;;;;;;;;;;;;;;;;;;4987205;28;20373;-72
2022/03/29 11:10:55;;;;;;;;;;;;;;;;;;4978122;28;20395;-72
2022/03/29 11:13:21;;;;;;;;;;;;;;;;;;4973445;28;19932;-72
2022/03/29 11:15:47;;;;;;;;;;;;;;;;;;4973369;28;19926;-71
2022/03/29 11:18:13;;;;;;;;;;;;;;;;;;4973919;28;19926;-72
2022/03/29 11:20:39;;;;;;;;;;;;;;;;;;4973325;28;19934;-72
2022/03/29 11:23:06;;;;;;;;;;;;;;;;;;4973040;28;19930;-71
2022/03/29 11:25:32;;;;;;;;;;;;;;;;;;4987366;28;19941;-71
2022/03/29 11:27:58;;;;;;;;;;;;;;;;;;4991796;28;19933;-71
2022/03/29 11:30:24;;;;;;;;;;;;;;;;;;4975795;28;19933;-71
2022/03/29 11:32:50;;;;;;;;;;;;;;;;;;4983157;28;19926;-71
2022/03/29 11:35:19;;;;;;;;;;;;;;;;;;4979648;28;20064;-72
2022/03/29 11:37:45;;;;;;;;;;;;;;;;;;4981419;28;19926;-72
2022/03/29 11:40:11;;;;;;;;;;;;;;;;;;4972820;28;19926;-72
2022/03/29 11:42:37;;;;;;;;;;;;;;;;;;4973941;28;20138;-72
2022/03/29 11:45:03;;;;;;;;;;;;;;;;;;4986072;28;20321;-71
2022/03/29 11:47:30;;;;;;;;;;;;;;;;;;4979609;28;19937;-72
2022/03/29 11:49:56;;;;;;;;;;;;;;;;;;4975336;28;19941;-71
2022/03/29 11:52:22;;;;;;;;;;;;;;;;;;4988550;28;19926;-72
2022/03/29 11:54:48;;;;;;;;;;;;;;;;;;4980306;28;19937;-72
2022/03/29 11:57:14;;;;;;;;;;;;;;;;;;4990638;28;19937;-71
2022/03/29 11:59:41;;;;;;;;;;;;;;;;;;4991838;28;19926;-71
2022/03/29 12:02:07;;;;;;;;;;;;;;;;;;4988796;28;19930;-71
2022/03/29 12:04:33;;;;;;;;;;;;;;;;;;4992160;28;20178;-71
2022/03/29 12:07:00;;;;;;;;;;;;;;;;;;4985460;28;20319;-72
2022/03/29 12:09:26;;;;;;;;;;;;;;;;;;4972883;28;19927;-72
2022/03/29 12:11:52;;;;;;;;;;;;;;;;;;4978757;28;20759;-71
2022/03/29 12:14:18;;;;;;;;;;;;;;;;;;4983657;28;20299;-71
2022/03/29 12:16:45;;;;;;;;;;;;;;;;;;4980652;28;20012;-71
2022/03/29 12:19:11;;;;;;;;;;;;;;;;;;4978802;28;20442;-71
2022/03/29 12:21:37;;;;;;;;;;;;;;;;;;4972528;28;20400;-72
2022/03/29 12:24:03;;;;;;;;;;;;;;;;;;4972581;28;19933;-71
2022/03/29 12:26:29;;;;;;;;;;;;;;;;;;4972562;28;19953;-71
2022/03/29 12:28:55;;;;;;;;;;;;;;;;;;4975894;28;19926;-72
2022/03/29 12:31:24;;;;;;;;;;;;;;;;;;4971833;28;19936;-71
2022/03/29 12:33:50;;;;;;;;;;;;;;;;;;4984047;28;20383;-71
2022/03/29 12:36:16;;;;;;;;;;;;;;;;;;4979916;28;19932;-70
2022/03/29 12:38:42;;;;;;;;;;;;;;;;;;4976929;28;19926;-71
2022/03/29 12:41:11;;;;;;;;;;;;;;;;;;4971868;28;20033;-71
2022/03/29 12:43:39;;;;;;;;;;;;;;;;;;4970799;28;20745;-70
2022/03/29 12:46:05;;;;;;;;;;;;;;;;;;4971556;28;19926;-70
2022/03/29 12:48:31;;;;;;;;;;;;;;;;;;4982541;28;19926;-69
2022/03/29 12:50:57;;;;;;;;;;;;;;;;;;4979274;28;20417;-70
2022/03/29 12:53:23;;;;;;;;;;;;;;;;;;4989776;28;20002;-69
2022/03/29 12:55:49;;;;;;;;;;;;;;;;;;4989897;28;19925;-70
2022/03/29 12:58:15;;;;;;;;;;;;;;;;;;4990614;28;19933;-71
2022/03/29 13:00:42;;;;;;;;;;;;;;;;;;4297860;28;10020853;-69
2022/03/29 13:03:08;;;;;;;;;;;;;;;;;;4987397;28;19930;-70
2022/03/29 13:05:34;;;;;;;;;;;;;;;;;;4987997;28;19926;-71
2022/03/29 13:08:00;;;;;;;;;;;;;;;;;;4986650;28;19926;-70
2022/03/29 13:10:26;;;;;;;;;;;;;;;;;;4984540;28;20087;-69
2022/03/29 13:12:53;;;;;;;;;;;;;;;;;;4987683;28;19936;-71
2022/03/29 13:15:19;;;;;;;;;;;;;;;;;;4987714;28;19926;-70
2022/03/29 13:17:45;;;;;;;;;;;;;;;;;;4988498;28;19926;-70
2022/03/29 13:20:11;;;;;;;;;;;;;;;;;;4987767;28;19933;-70
2022/03/29 13:22:37;;;;;;;;;;;;;;;;;;4987349;28;19937;-71
2022/03/29 13:25:04;;;;;;;;;;;;;;;;;;4986649;28;19942;-70
2022/03/29 13:27:30;;;;;;;;;;;;;;;;;;4989962;28;19930;-70
2022/03/29 13:29:56;;;;;;;;;;;;;;;;;;4993712;28;19952;-70
2022/03/29 13:32:22;;;;;;;;;;;;;;;;;;4992061;28;19929;-70
2022/03/29 13:34:49;;;;;;;;;;;;;;;;;;4991242;28;19930;-70
2022/03/29 13:37:15;;;;;;;;;;;;;;;;;;4987802;28;20292;-71
2022/03/29 13:39:41;;;;;;;;;;;;;;;;;;4987987;28;19937;-70
2022/03/29 13:42:08;;;;;;;;;;;;;;;;;;4987698;28;20018;-70
2022/03/29 13:44:34;;;;;;;;;;;;;;;;;;4981526;28;19980;-71
2022/03/29 13:47:00;;;;;;;;;;;;;;;;;;4987077;28;20375;-70
2022/03/29 13:49:27;;;;;;;;;;;;;;;;;;4979021;28;19948;-71
2022/03/29 13:51:53;;;;;;;;;;;;;;;;;;4974285;28;19930;-70
2022/03/29 13:54:19;;;;;;;;;;;;;;;;;;4979744;28;19926;-70
2022/03/29 13:56:45;;;;;;;;;;;;;;;;;;4979905;28;19926;-70
2022/03/29 13:59:11;;;;;;;;;;;;;;;;;;4975782;28;20930;-70
2022/03/29 14:01:38;;;;;;;;;;;;;;;;;;4982506;28;20368;-70
2022/03/29 14:04:05;;;;;;;;;;;;;;;;;;4976772;28;20012;-70
2022/03/29 14:06:31;;;;;;;;;;;;;;;;;;4984890;28;20450;-70
2022/03/29 14:08:57;;;;;;;;;;;;;;;;;;4971803;28;20211;-71
2022/03/29 14:11:23;;;;;;;;;;;;;;;;;;4971886;28;19930;-70
2022/03/29 14:13:49;;;;;;;;;;;;;;;;;;4984825;28;20382;-70
2022/03/29 14:16:16;;;;;;;;;;;;;;;;;;4980746;28;20399;-71
2022/03/29 14:18:42;;;;;;;;;;;;;;;;;;4978399;28;19934;-70
2022/03/29 14:21:08;;;;;;;;;;;;;;;;;;4979593;28;19930;-70
2022/03/29 14:23:34;;;;;;;;;;;;;;;;;;4980797;28;19930;-70
2022/03/29 14:26:00;;;;;;;;;;;;;;;;;;4980308;28;19932;-70
2022/03/29 14:28:26;;;;;;;;;;;;;;;;;;4971635;28;19933;-71
2022/03/29 14:30:52;;;;;;;;;;;;;;;;;;4977054;28;19937;-71
2022/03/29 14:33:19;;;;;;;;;;;;;;;;;;4980094;28;20027;-70
2022/03/29 14:35:46;;;;;;;;;;;;;;;;;;4978314;28;19926;-70
2022/03/29 14:38:12;;;;;;;;;;;;;;;;;;4977943;28;20024;-70
2022/03/29 14:40:39;;;;;;;;;;;;;;;;;;4979740;28;19926;-70
2022/03/29 14:43:05;;;;;;;;;;;;;;;;;;4980123;28;19926;-69
2022/03/29 14:45:31;;;;;;;;;;;;;;;;;;4988406;28;20378;-70
2022/03/29 14:47:57;;;;;;;;;;;;;;;;;;4983531;28;19930;-70
2022/03/29 14:50:23;;;;;;;;;;;;;;;;;;4984154;28;19996;-69
2022/03/29 14:52:50;;;;;;;;;;;;;;;;;;4984310;28;19936;-70
2022/03/29 14:55:16;;;;;;;;;;;;;;;;;;4983161;28;20415;-69
2022/03/29 14:57:42;;;;;;;;;;;;;;;;;;4987593;28;19984;-69
2022/03/29 15:00:08;;;;;;;;;;;;;;;;;;4974138;28;19941;-70
2022/03/29 15:02:34;;;;;;;;;;;;;;;;;;4981663;28;19973;-70
2022/03/29 15:05:00;;;;;;;;;;;;;;;;;;4977156;28;20303;-70
2022/03/29 15:07:27;;;;;;;;;;;;;;;;;;4969247;28;19933;-70
2022/03/29 15:09:53;;;;;;;;;;;;;;;;;;4973203;28;20011;-70
2022/03/29 15:12:19;;;;;;;;;;;;;;;;;;4974204;28;19937;-70
2022/03/29 15:14:45;;;;;;;;;;;;;;;;;;4974729;28;19934;-69
2022/03/29 15:17:11;;;;;;;;;;;;;;;;;;4980400;28;19926;-69
2022/03/29 15:19:37;;;;;;;;;;;;;;;;;;4980169;28;19926;-70
2022/03/29 15:22:03;;;;;;;;;;;;;;;;;;4981906;28;19966;-70
2022/03/29 15:24:30;;;;;;;;;;;;;;;;;;4983430;28;19929;-71
2022/03/29 15:26:57;;;;;;;;;;;;;;;;;;4978791;28;19969;-70
2022/03/29 15:29:23;;;;;;;;;;;;;;;;;;4971022;28;19941;-70
2022/03/29 15:31:52;;;;;;;;;;;;;;;;;;4975027;28;19930;-70
2022/03/29 15:34:30;;;;;;;;;;;;;;;;;;4978964;28;20052;-70
2022/03/29 15:36:56;;;;;;;;;;;;;;;;;;4979152;28;20484;-70
2022/03/29 15:39:22;;;;;;;;;;;;;;;;;;4981180;28;19936;-70
2022/03/29 15:41:48;;;;;;;;;;;;;;;;;;4975416;28;19929;-72
2022/03/29 15:44:14;;;;;;;;;;;;;;;;;;4978209;28;20280;-71
2022/03/29 15:46:40;;;;;;;;;;;;;;;;;;4975100;28;20055;-70
2022/03/29 15:49:07;;;;;;;;;;;;;;;;;;4983129;28;20009;-70
2022/03/29 15:51:33;;;;;;;;;;;;;;;;;;4980731;28;19936;-70
2022/03/29 15:53:59;;;;;;;;;;;;;;;;;;4982184;28;19940;-70
2022/03/29 15:56:26;;;;;;;;;;;;;;;;;;4978737;28;19926;-70
2022/03/29 15:58:52;;;;;;;;;;;;;;;;;;4978129;28;20371;-69
2022/03/29 16:01:18;;;;;;;;;;;;;;;;;;4978283;28;20703;-70
2022/03/29 16:03:44;;;;;;;;;;;;;;;;;;4976953;28;20024;-70
2022/03/29 16:06:11;;;;;;;;;;;;;;;;;;4979058;28;19979;-70
2022/03/29 16:08:38;;;;;;;;;;;;;;;;;;4975607;28;20408;-70
2022/03/29 16:11:04;;;;;;;;;;;;;;;;;;4972221;28;19930;-70
2022/03/29 16:13:30;;;;;;;;;;;;;;;;;;4976575;28;19937;-70
2022/03/29 16:15:56;;;;;;;;;;;;;;;;;;4977873;28;19929;-71
2022/03/29 16:18:22;;;;;;;;;;;;;;;;;;4979369;28;20902;-70
2022/03/29 16:20:50;;;;;;;;;;;;;;;;;;4973303;28;19934;-69
2022/03/29 16:23:16;;;;;;;;;;;;;;;;;;4975040;28;20016;-70
2022/03/29 16:25:43;;;;;;;;;;;;;;;;;;4978851;28;19944;-70
2022/03/29 16:28:09;;;;;;;;;;;;;;;;;;4978772;28;19946;-70
2022/03/29 16:30:35;;;;;;;;;;;;;;;;;;4975818;28;19932;-70
2022/03/29 16:33:01;;;;;;;;;;;;;;;;;;4974027;28;19934;-70
2022/03/29 16:35:28;;;;;;;;;;;;;;;;;;4974627;28;20003;-69
2022/03/29 16:37:54;;;;;;;;;;;;;;;;;;4981604;28;19957;-69
2022/03/29 16:40:20;;;;;;;;;;;;;;;;;;4981460;28;19955;-69
2022/03/29 16:42:47;;;;;;;;;;;;;;;;;;4981309;28;19955;-70
2022/03/29 16:45:13;;;;;;;;;;;;;;;;;;4980196;28;19964;-70
2022/03/29 16:47:39;;;;;;;;;;;;;;;;;;4976660;28;19954;-71
2022/03/29 16:50:05;;;;;;;;;;;;;;;;;;4980008;28;20239;-70